Time;durP1;ratioP1;P1;durP2;ratioP2;P2;SDS_P1;SDS_P2;PMS_P1;PMS_P2;Temp;Humidity;BMP_temperature;BMP_pressure;BME280_temperature;BME280_humidity;BME280_pressure;Samples;Min_cycle;Max_cycle;Signal;HPM_P1;HPM_P2
2022/03/19 00:00:06;;;;;;;43.83;29.93;;;;;;;-2.36;51.51;103104.34;1730846;81;21022;-68
2022/03/19 00:02:37;;;;;;;42.47;29.23;;;;;;;-2.40;51.36;103105.77;1737945;81;21066;-69
2022/03/19 00:05:08;;;;;;;46.33;31.67;;;;;;;-2.39;51.54;103107.50;1745559;81;21355;-69
2022/03/19 00:07:41;;;;;;;42.33;28.60;;;;;;;-2.43;51.54;103109.74;1737036;81;21053;-70
2022/03/19 00:10:10;;;;;;;40.57;29.17;;;;;;;-2.42;51.45;103108.86;1728106;81;21046;-69
2022/03/19 00:12:41;;;;;;;39.73;28.57;;;;;;;-2.43;51.45;103109.32;1744382;81;21058;-68
2022/03/19 00:15:11;;;;;;;38.07;28.00;;;;;;;-2.43;51.52;103104.52;1745235;81;21018;-70
2022/03/19 00:17:38;;;;;;;42.77;28.83;;;;;;;-2.43;51.56;103101.91;1739214;81;21110;-69
2022/03/19 00:20:08;;;;;;;42.30;30.27;;;;;;;-2.41;51.52;103098.81;1746957;81;21025;-68
2022/03/19 00:22:36;;;;;;;42.73;30.17;;;;;;;-2.41;51.50;103101.42;1750339;81;21057;-71
2022/03/19 00:25:05;;;;;;;44.50;29.83;;;;;;;-2.39;51.50;103095.74;1705721;83;21069;-69
2022/03/19 00:27:31;;;;;;;43.23;28.53;;;;;;;-2.41;51.57;103090.55;1686944;84;21014;-70
2022/03/19 00:29:59;;;;;;;40.50;28.57;;;;;;;-2.42;51.62;103095.34;1688902;83;21081;-69
2022/03/19 00:32:26;;;;;;;41.17;27.80;;;;;;;-2.46;51.69;103095.02;1691936;83;21102;-68
2022/03/19 00:34:53;;;;;;;47.05;28.90;;;;;;;-2.51;51.89;103094.71;1683291;84;21018;-69
2022/03/19 00:37:19;;;;;;;;;;;;;;;-2.57;52.12;103082.20;1693219;84;21600;-69
2022/03/19 00:39:47;;;;;;;42.77;28.83;;;;;;;-2.61;52.34;103084.47;1682718;83;20461;-69
2022/03/19 00:42:15;;;;;;;48.63;30.23;;;;;;;-2.65;52.55;103085.91;1686899;83;21832;-68
2022/03/19 00:44:44;;;;;;;46.83;31.40;;;;;;;-2.66;52.72;103083.71;1687773;83;21527;-69
2022/03/19 00:47:11;;;;;;;48.17;30.73;;;;;;;-2.68;52.84;103081.59;1676131;83;21030;-69
2022/03/19 00:49:40;;;;;;;47.63;33.07;;;;;;;-2.69;52.89;103082.50;1689492;83;21096;-69
2022/03/19 00:52:08;;;;;;;50.33;32.50;;;;;;;-2.70;52.89;103080.77;1693407;83;21073;-69
2022/03/19 00:54:36;;;;;;;47.63;33.87;;;;;;;-2.74;52.85;103076.52;1704119;83;21172;-69
2022/03/19 00:57:04;;;;;;;63.00;36.20;;;;;;;-2.77;52.90;103076.57;1697928;83;21053;-70
2022/03/19 00:59:30;;;;;;;59.63;39.37;;;;;;;-2.79;53.02;103073.14;1700497;83;21028;-70
2022/03/19 01:01:57;;;;;;;;;;;;;;;-2.82;53.26;103070.62;1689320;84;21122;-69
2022/03/19 01:04:24;;;;;;;64.57;39.07;;;;;;;-2.86;53.58;103071.55;1678392;84;20136;-70
2022/03/19 01:06:53;;;;;;;68.83;43.33;;;;;;;-2.95;53.90;103069.57;1677797;85;21099;-69
2022/03/19 01:09:22;;;;;;;66.87;43.20;;;;;;;-3.03;54.12;103061.06;1674763;85;21086;-70
2022/03/19 01:11:52;;;;;;;62.53;43.17;;;;;;;-3.08;54.46;103064.66;1669269;84;21037;-69
2022/03/19 01:14:20;;;;;;;76.30;43.93;;;;;;;-3.14;54.69;103065.66;1676988;84;21046;-69
2022/03/19 01:16:49;;;;;;;76.53;46.00;;;;;;;-3.18;55.02;103069.22;1675206;85;21514;-70
2022/03/19 01:19:52;;;;;;;88.33;51.83;;;;;;;-3.20;55.37;103073.16;1681777;84;21141;-70
2022/03/19 01:21:48;;;;;;;88.67;52.17;;;;;;;-3.23;55.72;103067.15;1702198;83;21030;-71
2022/03/19 01:24:18;;;;;;;83.07;49.50;;;;;;;-3.28;55.96;103069.83;1691397;83;21144;-72
2022/03/19 01:26:47;;;;;;;75.30;47.30;;;;;;;-3.26;56.15;103069.81;1679227;84;21091;-69
2022/03/19 01:29:15;;;;;;;80.57;46.40;;;;;;;-3.28;56.41;103070.29;1697146;84;22193;-69
2022/03/19 01:31:41;;;;;;;76.37;44.40;;;;;;;-3.33;56.70;103067.33;1696835;83;21062;-68
2022/03/19 01:34:12;;;;;;;72.20;43.17;;;;;;;-3.37;56.89;103067.41;1708059;83;21077;-69
2022/03/19 01:36:40;;;;;;;70.30;44.33;;;;;;;-3.36;57.37;103064.78;1677953;84;21059;-70
2022/03/19 01:39:10;;;;;;;69.10;43.37;;;;;;;-3.32;57.35;103064.27;1702478;84;21134;-70
2022/03/19 01:41:41;;;;;;;61.23;41.63;;;;;;;-3.33;57.31;103058.20;1669630;85;21068;-69
2022/03/19 01:44:19;;;;;;;60.53;40.20;;;;;;;-3.41;57.32;103051.41;1669686;84;21000;-70
2022/03/19 01:47:10;;;;;;;61.30;39.17;;;;;;;-3.36;57.56;103064.78;1668800;84;21051;-70
2022/03/19 01:49:35;;;;;;;62.47;39.83;;;;;;;-3.38;57.78;103058.73;1674669;84;21063;-70
2022/03/19 01:52:05;;;;;;;58.50;38.40;;;;;;;-3.36;57.87;103060.02;1664998;84;21047;-69
2022/03/19 01:54:36;;;;;;;65.43;42.07;;;;;;;-3.40;58.06;103060.52;1659110;85;21031;-70
2022/03/19 01:57:06;;;;;;;59.37;39.13;;;;;;;-3.41;58.17;103058.81;1656716;85;21090;-69
2022/03/19 02:02:31;;;;;;;53.70;36.27;;;;;;;-3.40;58.58;103048.78;1758226;79;22951;-67
2022/03/19 02:05:03;;;;;;;54.23;35.90;;;;;;;-3.49;58.71;103052.88;1757352;80;21109;-69
2022/03/19 02:07:31;;;;;;;53.53;35.47;;;;;;;-3.53;58.95;103055.98;1743028;80;21056;-69
2022/03/19 02:09:59;;;;;;;50.07;34.43;;;;;;;-3.57;59.17;103056.09;1743979;81;21028;-70
2022/03/19 02:12:28;;;;;;;52.20;35.53;;;;;;;-3.61;59.22;103058.35;1746797;80;21040;-69
2022/03/19 02:14:57;;;;;;;49.83;34.60;;;;;;;-3.65;59.49;103068.42;1765788;80;21027;-69
2022/03/19 02:17:26;;;;;;;52.00;34.37;;;;;;;-3.67;59.55;103067.56;1747375;80;21002;-69
2022/03/19 02:19:57;;;;;;;57.50;34.73;;;;;;;-3.69;59.70;103068.92;1759022;80;21029;-70
2022/03/19 02:22:27;;;;;;;61.90;38.97;;;;;;;-3.69;59.72;103070.23;1744022;81;21051;-70
2022/03/19 02:27:42;;;;;;;58.17;36.67;;;;;;;-3.65;59.91;103073.19;1747760;80;21037;-70
2022/03/19 02:30:14;;;;;;;60.07;38.40;;;;;;;-3.62;59.93;103063.98;1753774;80;20997;-71
2022/03/19 02:32:45;;;;;;;61.87;38.50;;;;;;;-3.60;60.02;103066.15;1752353;80;21019;-70
2022/03/19 02:35:12;;;;;;;61.43;38.90;;;;;;;-3.56;59.88;103066.50;1750584;81;22216;-70
2022/03/19 02:37:44;;;;;;;;;;;;;;;-3.55;59.83;103062.13;1744620;81;21556;-71
2022/03/19 02:40:18;;;;;;;63.73;38.50;;;;;;;-3.56;59.86;103065.61;1741309;80;20135;-70
2022/03/19 02:42:54;;;;;;;69.40;42.87;;;;;;;-3.62;59.93;103067.89;1747172;81;21032;-69
2022/03/19 02:45:22;;;;;;;72.30;43.33;;;;;;;-3.66;60.04;103067.55;1741706;80;21033;-67
2022/03/19 02:47:57;;;;;;;71.80;45.13;;;;;;;-3.69;60.13;103067.63;1721536;82;21619;-70
2022/03/19 02:50:36;;;;;;;71.20;43.50;;;;;;;-3.71;60.17;103069.41;1728833;82;21072;-70
2022/03/19 02:53:10;;;;;;;76.07;45.57;;;;;;;-3.73;60.19;103071.15;1720431;82;21565;-69
2022/03/19 02:55:40;;;;;;;71.80;44.07;;;;;;;-3.75;60.20;103075.11;1714690;82;21100;-69
2022/03/19 02:58:09;;;;;;;74.83;42.73;;;;;;;-3.70;60.28;103078.08;1727071;82;21015;-69
2022/03/19 03:00:38;;;;;;;74.63;45.03;;;;;;;-3.70;60.17;103079.38;1706507;82;21064;-70
2022/03/19 03:03:06;;;;;;;69.93;45.73;;;;;;;-3.73;60.21;103077.66;1714567;82;22394;-70
2022/03/19 03:05:35;;;;;;;75.07;43.80;;;;;;;-3.71;60.22;103077.22;1684907;84;21056;-69
2022/03/19 03:08:04;;;;;;;79.07;45.83;;;;;;;-3.69;60.14;103081.08;1683539;83;21196;-68
2022/03/19 03:10:32;;;;;;;80.00;46.60;;;;;;;-3.67;59.97;103082.79;1684785;83;22148;-70
2022/03/19 03:13:01;;;;;;;77.80;43.43;;;;;;;-3.68;59.96;103084.97;1682896;83;21481;-69
2022/03/19 03:15:28;;;;;;;77.83;46.43;;;;;;;-3.70;60.11;103088.50;1708818;83;21128;-70
2022/03/19 03:17:56;;;;;;;78.03;47.23;;;;;;;-3.71;60.13;103091.56;1708676;83;22287;-70
2022/03/19 03:20:24;;;;;;;77.03;46.87;;;;;;;-3.72;60.23;103087.22;1708560;83;21069;-70
2022/03/19 03:22:51;;;;;;;82.50;47.77;;;;;;;-3.73;60.22;103088.97;1697936;83;21060;-70
2022/03/19 03:25:19;;;;;;;79.03;47.37;;;;;;;-3.76;60.18;103092.93;1671877;84;21533;-70
2022/03/19 03:27:47;;;;;;;91.90;50.23;;;;;;;-3.76;60.30;103088.17;1677086;84;21579;-69
2022/03/19 03:30:14;;;;;;;98.60;53.80;;;;;;;-3.78;60.47;103088.19;1678161;84;21144;-69
2022/03/19 03:32:40;;;;;;;101.00;55.73;;;;;;;-3.82;60.49;103093.50;1646015;85;21048;-70
2022/03/19 03:35:09;;;;;;;119.00;64.27;;;;;;;-3.88;60.57;103097.50;1663544;84;21070;-70
2022/03/19 03:37:38;;;;;;;116.80;61.73;;;;;;;-3.98;60.50;103094.20;1660539;85;21072;-70
2022/03/19 03:40:09;;;;;;;112.80;62.53;;;;;;;-4.03;60.68;103102.53;1670689;85;21180;-69
2022/03/19 03:42:41;;;;;;;132.77;75.27;;;;;;;-4.07;60.79;103099.56;1658740;85;21032;-68
2022/03/19 03:45:10;;;;;;;144.60;75.23;;;;;;;-4.12;60.88;103100.50;1653752;83;21098;-69
2022/03/19 03:47:37;;;;;;;146.43;77.80;;;;;;;-4.12;60.97;103103.11;1661325;85;22249;-70
2022/03/19 03:50:07;;;;;;;170.73;90.00;;;;;;;-4.09;61.02;103102.19;1661871;84;21156;-69
2022/03/19 03:52:37;;;;;;;229.50;119.07;;;;;;;-4.04;60.92;103104.73;1658054;86;21120;-70
2022/03/19 03:55:07;;;;;;;193.90;101.80;;;;;;;-3.99;60.69;103107.67;1665049;84;21148;-69
2022/03/19 03:57:36;;;;;;;199.53;103.87;;;;;;;-3.94;60.56;103115.40;1690395;84;21552;-69
2022/03/19 04:00:08;;;;;;;188.97;92.37;;;;;;;-3.89;60.46;103104.46;1682150;84;21013;-69
2022/03/19 04:02:38;;;;;;;185.37;97.23;;;;;;;-3.85;60.36;103106.12;1695590;84;21516;-69
2022/03/19 04:05:08;;;;;;;192.07;96.73;;;;;;;-3.82;60.46;103106.08;1689273;84;21587;-70
2022/03/19 04:07:37;;;;;;;245.13;127.60;;;;;;;-3.78;60.48;103111.66;1688563;84;21024;-69
2022/03/19 04:10:06;;;;;;;218.80;110.33;;;;;;;-3.75;60.31;103109.00;1692906;84;21117;-70
2022/03/19 04:12:36;;;;;;;237.73;123.10;;;;;;;-3.74;60.42;103107.24;1698186;83;21064;-69
2022/03/19 04:15:05;;;;;;;258.80;125.87;;;;;;;-3.72;60.41;103114.14;1699616;83;21072;-70
2022/03/19 04:17:33;;;;;;;252.07;126.67;;;;;;;-3.73;60.37;103111.13;1700722;83;21114;-69
2022/03/19 04:20:00;;;;;;;290.20;145.17;;;;;;;-3.74;60.35;103109.40;1692691;83;21559;-70
2022/03/19 04:22:40;;;;;;;307.23;155.67;;;;;;;-3.74;60.28;103103.33;1690650;83;21120;-71
2022/03/19 04:25:16;;;;;;;304.87;155.93;;;;;;;-3.72;60.24;103105.47;1720295;82;21050;-70
2022/03/19 04:27:46;;;;;;;295.82;153.87;;;;;;;-3.66;60.36;103106.65;1709936;82;21509;-69
2022/03/19 04:30:15;;;;;;;321.73;169.83;;;;;;;-3.47;60.49;103109.77;1711339;82;21040;-70
2022/03/19 04:32:50;;;;;;;314.90;155.00;;;;;;;-3.18;60.32;103110.52;1704365;82;21077;-69
2022/03/19 04:38:11;;;;;;;320.60;163.73;;;;;;;-2.30;58.44;103108.55;1680362;84;21078;-69
2022/03/19 04:40:42;;;;;;;322.23;171.20;;;;;;;-1.72;57.23;103109.31;1675980;85;21038;-70
2022/03/19 04:43:10;;;;;;;326.03;170.53;;;;;;;-1.16;56.04;103112.13;1675972;84;21013;-69
2022/03/19 04:45:39;;;;;;;355.13;180.97;;;;;;;-0.59;54.66;103108.65;1678816;84;21172;-70
2022/03/19 04:48:06;;;;;;;336.70;181.13;;;;;;;0.02;53.37;103100.16;1678970;84;21553;-70
2022/03/19 04:50:38;;;;;;;351.77;195.30;;;;;;;0.60;52.06;103104.67;1678430;84;21521;-69
2022/03/19 04:53:07;;;;;;;354.73;198.27;;;;;;;1.14;50.52;103100.91;1681231;84;21061;-70
2022/03/19 04:55:36;;;;;;;379.87;210.70;;;;;;;1.67;49.17;103109.37;1686443;83;21048;-69
2022/03/19 04:58:06;;;;;;;368.37;212.97;;;;;;;2.12;47.72;103100.02;1702076;83;21550;-70
2022/03/19 05:00:34;;;;;;;465.53;263.80;;;;;;;2.55;46.80;103108.31;1696453;83;21532;-69
2022/03/19 05:03:02;;;;;;;465.70;267.43;;;;;;;2.90;45.28;103108.02;1666228;84;21172;-69
2022/03/19 05:05:30;;;;;;;515.83;299.73;;;;;;;3.20;44.59;103107.52;1670810;84;21678;-69
2022/03/19 05:07:58;;;;;;;548.20;327.30;;;;;;;3.50;43.92;103096.84;1675119;85;21139;-69
2022/03/19 05:13:13;;;;;;;642.07;391.83;;;;;;;4.07;41.66;103099.30;1702527;83;21040;-69
2022/03/19 05:15:42;;;;;;;637.17;382.37;;;;;;;4.44;40.37;103103.14;1708810;83;21096;-70
2022/03/19 05:18:09;;;;;;;576.80;351.77;;;;;;;4.39;38.69;103046.61;1708716;83;21203;-69
2022/03/19 05:20:37;;;;;;;560.77;332.53;;;;;;;4.99;36.54;103102.84;1711247;82;21104;-69
2022/03/19 05:23:10;;;;;;;519.87;315.33;;;;;;;5.18;36.25;103105.32;1687692;82;21552;-70
2022/03/19 05:25:36;;;;;;;519.47;307.33;;;;;;;5.40;35.36;103109.40;1655997;85;21045;-69
2022/03/19 05:28:03;;;;;;;;;;;;;;;5.62;34.11;103113.01;1658420;85;21021;-69
2022/03/19 05:30:32;;;;;;;508.07;304.57;;;;;;;5.71;33.41;103112.48;1656238;85;20134;-69
2022/03/19 05:32:59;;;;;;;;;;;;;;;5.73;32.98;103109.28;1665849;85;21113;-69
2022/03/19 05:35:27;;;;;;;626.80;382.37;;;;;;;5.73;32.85;103117.70;1716458;82;20138;-69
2022/03/19 05:37:59;;;;;;;601.37;361.13;;;;;;;5.48;33.39;103123.03;1730778;82;21532;-69
2022/03/19 05:40:26;;;;;;;549.07;338.43;;;;;;;5.39;33.16;103116.97;1710070;83;21029;-70
2022/03/19 05:42:54;;;;;;;521.00;305.80;;;;;;;5.18;33.31;103121.63;1719718;83;21005;-69
2022/03/19 05:45:23;;;;;;;606.40;369.50;;;;;;;5.09;33.27;103121.69;1693168;81;21017;-70
2022/03/19 05:47:51;;;;;;;495.43;292.47;;;;;;;5.10;34.04;103124.70;1686151;84;22262;-69
2022/03/19 05:50:19;;;;;;;514.97;300.70;;;;;;;5.13;33.15;103125.87;1686263;83;21070;-70
2022/03/19 05:52:49;;;;;;;566.00;347.97;;;;;;;5.18;33.27;103133.53;1699138;83;21037;-69
2022/03/19 05:55:16;;;;;;;578.93;351.00;;;;;;;5.29;33.51;103134.27;1694313;84;21127;-70
2022/03/19 05:57:45;;;;;;;524.80;324.30;;;;;;;5.49;33.46;103133.17;1676396;84;21614;-68
2022/03/19 06:00:12;;;;;;;528.10;316.53;;;;;;;5.63;33.42;103139.39;1682352;84;21180;-69
2022/03/19 06:02:44;;;;;;;505.13;303.20;;;;;;;5.33;33.10;103076.29;1678076;84;21620;-71
2022/03/19 06:05:11;;;;;;;475.23;273.67;;;;;;;5.70;33.03;103139.88;1691628;84;22274;-69
2022/03/19 06:07:40;;;;;;;477.20;272.40;;;;;;;5.87;33.07;103145.52;1682810;84;21603;-69
2022/03/19 06:10:09;;;;;;;485.17;285.43;;;;;;;6.09;32.87;103139.03;1685564;84;21524;-69
2022/03/19 06:12:40;;;;;;;440.53;253.27;;;;;;;6.31;32.90;103142.56;1686231;83;21000;-69
2022/03/19 06:15:09;;;;;;;432.03;250.07;;;;;;;6.51;31.95;103142.70;1691422;83;21545;-70
2022/03/19 06:17:39;;;;;;;385.40;223.33;;;;;;;6.60;32.24;103140.81;1685098;83;21080;-70
2022/03/19 06:20:07;;;;;;;369.00;213.87;;;;;;;6.79;32.00;103138.73;1697072;83;21092;-71
2022/03/19 06:22:40;;;;;;;331.03;191.43;;;;;;;7.06;31.72;103135.78;1693313;82;21606;-70
2022/03/19 06:25:11;;;;;;;290.70;164.17;;;;;;;7.30;30.88;103130.23;1693268;83;21584;-71
2022/03/19 06:27:40;;;;;;;246.47;140.47;;;;;;;7.26;31.03;103130.55;1680412;83;21064;-71
2022/03/19 06:30:08;;;;;;;227.53;126.77;;;;;;;7.25;30.37;103132.33;1692067;83;21088;-72
2022/03/19 06:32:39;;;;;;;199.97;111.37;;;;;;;7.14;30.51;103136.14;1688089;83;21093;-71
2022/03/19 06:35:08;;;;;;;184.07;104.03;;;;;;;6.93;30.46;103131.72;1686278;82;21038;-71
2022/03/19 06:37:35;;;;;;;199.93;110.20;;;;;;;6.59;30.60;103137.77;1688474;83;21122;-70
2022/03/19 06:40:06;;;;;;;195.33;110.13;;;;;;;6.46;31.38;103135.48;1687781;83;21045;-71
2022/03/19 06:42:34;;;;;;;193.57;108.03;;;;;;;6.50;31.18;103134.36;1691527;83;21580;-71
2022/03/19 06:45:01;;;;;;;188.67;105.27;;;;;;;6.36;31.46;103143.98;1697631;82;21628;-68
2022/03/19 06:47:27;;;;;;;;;;;;;;;6.01;31.69;103143.45;1694951;83;21124;-66
2022/03/19 06:49:54;;;;;;;217.77;115.33;;;;;;;5.47;32.35;103143.83;1688557;83;20144;-70
2022/03/19 06:52:22;;;;;;;194.30;107.17;;;;;;;4.92;33.26;103140.27;1694823;83;21075;-67
2022/03/19 06:54:54;;;;;;;191.80;104.40;;;;;;;4.59;33.66;103143.75;1679319;83;21577;-68
2022/03/19 06:57:21;;;;;;;207.07;109.47;;;;;;;4.03;35.03;103139.98;1686205;82;21048;-66
2022/03/19 06:59:50;;;;;;;187.10;100.90;;;;;;;3.59;35.61;103137.73;1691792;83;21050;-66
2022/03/19 07:02:19;;;;;;;178.33;97.43;;;;;;;3.32;36.36;103145.19;1667367;83;21087;-69
2022/03/19 07:04:47;;;;;;;150.77;80.30;;;;;;;3.15;36.81;103149.92;1687808;83;21060;-69
2022/03/19 07:07:15;;;;;;;156.43;85.73;;;;;;;2.94;36.60;103150.45;1693867;83;21072;-67
2022/03/19 07:09:46;;;;;;;158.30;87.40;;;;;;;2.83;37.14;103155.34;1696102;83;21158;-65
2022/03/19 07:12:14;;;;;;;155.27;81.77;;;;;;;2.76;37.79;103158.70;1692730;82;21039;-65
2022/03/19 07:14:41;;;;;;;151.37;78.90;;;;;;;2.73;37.95;103152.23;1694503;83;21113;-66
2022/03/19 07:17:10;;;;;;;132.37;69.80;;;;;;;2.82;37.96;103154.94;1692194;83;21152;-66
2022/03/19 07:19:38;;;;;;;124.07;64.03;;;;;;;2.93;37.67;103146.09;1693646;83;21287;-71
2022/03/19 07:22:04;;;;;;;101.85;54.23;;;;;;;3.01;37.32;103146.58;1688906;83;21065;-66
2022/03/19 07:24:31;;;;;;;85.50;41.83;;;;;;;3.02;37.28;103144.36;1687694;84;21143;-69
2022/03/19 07:27:01;;;;;;;83.70;46.70;;;;;;;3.02;37.01;103145.67;1680840;84;21070;-65
2022/03/19 07:29:29;;;;;;;119.73;63.50;;;;;;;3.02;37.57;103138.23;1693254;84;21059;-66
2022/03/19 07:31:57;;;;;;;61.63;37.03;;;;;;;2.92;38.21;103140.44;1690441;84;22228;-69
2022/03/19 07:34:23;;;;;;;;;;;;;;;2.87;37.94;103138.47;1684800;84;21130;-67
2022/03/19 07:36:51;;;;;;;47.70;27.57;;;;;;;2.88;37.55;103144.99;1682845;84;20532;-67
2022/03/19 07:39:18;;;;;;;47.53;27.30;;;;;;;2.90;37.63;103143.58;1657600;84;21423;-72
2022/03/19 07:41:45;;;;;;;43.27;23.43;;;;;;;3.03;37.48;103141.25;1682949;84;21066;-67
2022/03/19 07:44:12;;;;;;;32.37;19.83;;;;;;;3.21;37.09;103141.72;1683687;84;21621;-66
2022/03/19 07:46:41;;;;;;;21.07;15.57;;;;;;;3.41;36.48;103143.44;1692439;84;21045;-67
2022/03/19 07:49:11;;;;;;;27.97;16.73;;;;;;;3.53;35.85;103143.30;1685413;84;21072;-67
2022/03/19 07:51:39;;;;;;;30.87;17.97;;;;;;;3.64;35.63;103135.73;1685497;84;22380;-71
2022/03/19 07:54:07;;;;;;;23.40;17.57;;;;;;;3.72;35.74;103133.19;1655234;84;21596;-67
2022/03/19 07:56:35;;;;;;;20.27;14.07;;;;;;;3.74;35.61;103133.97;1706121;82;21579;-67
2022/03/19 07:59:02;;;;;;;17.77;11.63;;;;;;;3.75;35.43;103141.81;1682282;84;21089;-66
2022/03/19 08:01:29;;;;;;;12.27;9.97;;;;;;;3.78;34.66;103141.64;1685953;84;21113;-67
2022/03/19 08:03:56;;;;;;;17.47;11.60;;;;;;;3.72;34.06;103149.86;1691099;84;21094;-65
2022/03/19 08:06:23;;;;;;;14.50;10.47;;;;;;;3.68;34.22;103143.88;1685570;84;22221;-66
2022/03/19 08:08:51;;;;;;;;;;;;;;;3.69;34.59;103144.28;1689094;84;21049;-66
2022/03/19 08:11:18;;;;;;;11.03;7.87;;;;;;;3.74;34.33;103140.09;1685830;84;20321;-72
2022/03/19 08:13:46;;;;;;;10.93;8.23;;;;;;;3.73;33.42;103132.24;1681512;84;21023;-65
2022/03/19 08:16:14;;;;;;;9.60;7.97;;;;;;;3.76;33.22;103136.06;1692214;84;21606;-65
2022/03/19 08:18:42;;;;;;;9.67;8.67;;;;;;;3.83;33.24;103130.88;1686964;84;21104;-68
2022/03/19 08:21:11;;;;;;;10.97;7.40;;;;;;;3.94;32.57;103133.84;1687463;84;21021;-76
2022/03/19 08:23:39;;;;;;;8.87;7.60;;;;;;;3.74;32.42;103074.13;1692162;84;22536;-73
2022/03/19 08:26:06;;;;;;;8.57;6.80;;;;;;;4.23;32.21;103129.72;1687511;84;21005;-67
2022/03/19 08:28:34;;;;;;;9.53;7.50;;;;;;;4.29;32.01;103120.63;1690933;84;21527;-68
2022/03/19 08:31:02;;;;;;;11.27;7.87;;;;;;;4.38;32.08;103120.63;1683800;84;21124;-67
2022/03/19 08:33:30;;;;;;;10.57;8.20;;;;;;;4.49;31.72;103120.45;1689513;84;21022;-67
2022/03/19 08:35:58;;;;;;;11.33;6.73;;;;;;;4.56;31.18;103121.44;1683932;84;21158;-68
2022/03/19 08:41:10;;;;;;;8.80;7.07;;;;;;;4.42;30.50;103112.93;1685551;84;21660;-65
2022/03/19 08:43:37;;;;;;;7.23;6.17;;;;;;;4.45;30.58;103116.74;1685383;84;21151;-66
2022/03/19 08:46:05;;;;;;;10.33;6.90;;;;;;;4.50;29.17;103110.73;1693276;84;21122;-67
2022/03/19 08:48:33;;;;;;;11.67;7.47;;;;;;;4.48;29.51;103105.55;1691552;84;21069;-66
2022/03/19 08:51:39;;;;;;;11.07;7.37;;;;;;;4.47;29.27;103109.11;1687599;84;21077;-71
2022/03/19 08:53:30;;;;;;;7.47;6.73;;;;;;;4.46;29.67;103102.14;1682949;84;21070;-67
2022/03/19 08:55:59;;;;;;;9.77;7.63;;;;;;;4.52;29.95;103114.17;1697225;82;21006;-72
2022/03/19 08:58:26;;;;;;;10.33;8.03;;;;;;;4.62;29.47;103118.02;1710704;82;21033;-67
2022/03/19 09:00:57;;;;;;;11.60;8.03;;;;;;;4.70;28.83;103121.58;1714280;82;20973;-67
2022/03/19 09:03:22;;;;;;;14.70;8.83;;;;;;;4.71;28.98;103120.66;1712518;82;21342;-69
2022/03/19 09:05:48;;;;;;;16.17;9.40;;;;;;;4.76;28.23;103113.79;1713132;82;21079;-71
2022/03/19 09:08:15;;;;;;;12.93;8.67;;;;;;;4.80;28.48;103118.84;1712130;82;21021;-64
2022/03/19 09:10:43;;;;;;;9.63;7.93;;;;;;;4.85;27.32;103111.50;1710959;82;21099;-68
2022/03/19 09:13:10;;;;;;;14.07;8.77;;;;;;;4.84;27.11;103110.25;1680202;84;21512;-67
2022/03/19 09:15:39;;;;;;;9.67;7.50;;;;;;;4.86;27.14;103116.34;1682687;84;21115;-68
2022/03/19 09:18:06;;;;;;;10.77;7.40;;;;;;;4.84;26.91;103121.70;1681997;83;21049;-67
2022/03/19 09:20:35;;;;;;;10.10;6.80;;;;;;;4.81;26.89;103115.25;1681705;84;21246;-66
2022/03/19 09:23:03;;;;;;;8.10;7.30;;;;;;;4.84;26.79;103125.67;1683173;84;21037;-73
2022/03/19 09:25:30;;;;;;;8.83;6.57;;;;;;;4.80;26.58;103122.81;1679321;84;21055;-69
2022/03/19 09:27:57;;;;;;;10.13;8.30;;;;;;;4.76;26.75;103124.36;1678114;84;21053;-67
2022/03/19 09:30:28;;;;;;;11.00;7.37;;;;;;;4.76;26.63;103116.44;1676481;84;21210;-75
2022/03/19 09:32:57;;;;;;;8.27;7.40;;;;;;;4.80;26.57;103114.88;1674712;84;21486;-67
2022/03/19 09:35:24;;;;;;;13.10;7.30;;;;;;;4.84;26.08;103112.89;1685048;84;21065;-72
2022/03/19 09:37:51;;;;;;;10.27;7.87;;;;;;;4.85;26.18;103119.42;1675558;84;21072;-68
2022/03/19 09:40:19;;;;;;;9.07;7.20;;;;;;;4.88;26.37;103111.34;1684065;84;21037;-68
2022/03/19 09:42:53;;;;;;;8.67;6.50;;;;;;;4.91;25.99;103113.44;1680260;84;21084;-66
2022/03/19 09:45:24;;;;;;;8.23;6.30;;;;;;;4.88;25.88;103110.03;1682805;83;21032;-65
2022/03/19 09:47:51;;;;;;;11.60;6.87;;;;;;;4.90;26.13;103105.11;1673373;84;21064;-67
2022/03/19 09:50:18;;;;;;;11.90;7.33;;;;;;;4.97;25.86;103097.23;1679063;84;21020;-73
2022/03/19 09:52:45;;;;;;;;;;;;;;;5.07;25.87;103095.81;1683059;84;21071;-66
2022/03/19 09:55:17;;;;;;;7.92;7.08;;;;;;;5.15;25.52;103094.91;1679775;83;20146;-66
2022/03/19 09:57:45;;;;;;;7.67;6.33;;;;;;;5.20;25.73;103088.05;1677072;84;22615;-73
2022/03/19 10:00:15;;;;;;;8.67;6.47;;;;;;;5.30;25.07;103093.67;1683048;84;21094;-67
2022/03/19 10:03:02;;;;;;;8.87;6.27;;;;;;;5.35;25.35;103085.87;1682640;83;21077;-67
2022/03/19 10:08:36;;;;;;;10.97;7.50;;;;;;;5.34;24.78;103084.63;1655238;84;20166;-66
2022/03/19 10:11:15;;;;;;;10.05;7.05;;;;;;;5.24;25.30;103078.53;1652739;84;21041;-70
2022/03/19 10:13:45;;;;;;;7.40;6.12;;;;;;;5.22;25.39;103077.77;1701979;83;21029;-65
2022/03/19 10:16:25;;;;;;;8.23;6.93;;;;;;;5.22;25.17;103083.53;1704348;83;21543;-66
2022/03/19 10:19:02;;;;;;;12.77;7.77;;;;;;;5.17;25.12;103075.84;1703599;83;21018;-65
2022/03/19 10:21:37;;;;;;;8.35;6.67;;;;;;;5.18;25.49;103074.91;1704279;83;21565;-67
2022/03/19 10:24:11;;;;;;;6.93;5.53;;;;;;;5.26;25.57;103072.68;1694442;83;21116;-68
2022/03/19 10:26:38;;;;;;;6.70;5.67;;;;;;;5.03;25.19;103011.84;1693334;84;21612;-67
2022/03/19 10:29:09;;;;;;;8.80;6.13;;;;;;;5.46;25.43;103059.66;1696709;84;21074;-69
2022/03/19 10:31:43;;;;;;;7.87;6.90;;;;;;;5.53;24.82;103056.17;1677184;84;21619;-68
2022/03/19 10:34:10;;;;;;;5.80;5.00;;;;;;;5.59;25.02;103058.45;1673826;84;21056;-65
2022/03/19 10:36:43;;;;;;;8.13;5.30;;;;;;;5.63;24.28;103062.65;1654139;85;21081;-69
2022/03/19 10:39:24;;;;;;;6.27;5.63;;;;;;;5.60;24.34;103057.52;1661608;85;21127;-66
2022/03/19 10:41:54;;;;;;;5.60;5.00;;;;;;;5.55;24.57;103054.77;1708732;83;21079;-67
2022/03/19 10:44:26;;;;;;;7.87;6.10;;;;;;;5.54;24.41;103049.95;1688440;84;21050;-66
2022/03/19 10:46:59;;;;;;;7.57;5.13;;;;;;;5.55;24.80;103046.83;1694586;84;21076;-66
2022/03/19 10:49:28;;;;;;;5.00;4.43;;;;;;;5.61;24.73;103053.08;1692798;84;21528;-67
2022/03/19 10:51:58;;;;;;;5.40;4.90;;;;;;;5.61;24.89;103040.72;1691395;84;21060;-65
2022/03/19 10:54:26;;;;;;;9.70;5.33;;;;;;;5.68;24.95;103049.13;1696633;83;21497;-66
2022/03/19 10:56:54;;;;;;;5.37;4.90;;;;;;;5.76;25.19;103042.91;1656354;84;21199;-66
2022/03/19 10:59:24;;;;;;;5.97;5.23;;;;;;;5.82;25.14;103045.22;1680095;84;21188;-67
2022/03/19 11:01:54;;;;;;;8.33;4.93;;;;;;;5.85;26.12;103041.05;1698624;83;22269;-67
2022/03/19 11:04:22;;;;;;;7.17;5.10;;;;;;;5.82;25.57;103038.60;1696459;83;21049;-66
2022/03/19 11:06:52;;;;;;;6.53;5.80;;;;;;;5.71;25.94;103036.19;1655413;85;21031;-67
2022/03/19 11:09:24;;;;;;;7.83;5.50;;;;;;;5.66;26.11;103038.63;1665372;85;21237;-67
2022/03/19 11:11:57;;;;;;;10.00;5.87;;;;;;;5.68;26.40;103040.36;1704057;83;21580;-67
2022/03/19 11:14:30;;;;;;;8.90;4.97;;;;;;;5.75;26.01;103035.09;1709115;83;21021;-69
2022/03/19 11:17:24;;;;;;;6.80;5.23;;;;;;;5.80;25.54;103021.08;1713732;82;21141;-70
2022/03/19 11:20:02;;;;;;;7.17;5.07;;;;;;;5.75;25.88;103030.64;1715353;82;21604;-68
2022/03/19 11:22:42;;;;;;;5.77;4.90;;;;;;;5.71;25.89;103026.47;1704176;83;21002;-73
2022/03/19 11:25:31;;;;;;;7.27;5.73;;;;;;;5.72;25.88;103024.19;1713337;82;21097;-72
2022/03/19 11:28:03;;;;;;;6.43;5.73;;;;;;;5.73;25.79;103021.09;1700227;83;21069;-69
2022/03/19 11:30:38;;;;;;;6.50;5.87;;;;;;;5.73;26.01;103020.62;1708293;82;21092;-71
2022/03/19 11:33:18;;;;;;;5.60;4.90;;;;;;;5.79;26.01;103014.11;1709864;83;21072;-67
2022/03/19 11:35:49;;;;;;;5.83;5.23;;;;;;;5.82;25.54;103009.94;1710558;82;21112;-66
2022/03/19 11:38:22;;;;;;;7.87;4.53;;;;;;;5.82;25.67;103008.61;1659496;84;21049;-66
2022/03/19 11:40:55;;;;;;;5.53;5.00;;;;;;;5.75;25.42;103010.79;1713308;83;21096;-73
2022/03/19 11:43:35;;;;;;;6.47;5.00;;;;;;;5.72;25.75;103008.80;1707350;83;21177;-67